createdAt,value
2018-04-12T00:00:03.965Z,101007.60
2018-04-12T00:02:29.706Z,101013.70
2018-04-12T00:04:55.437Z,101011.93
2018-04-12T00:07:21.168Z,101005.83
2018-04-12T00:09:46.884Z,101004.09
2018-04-12T00:12:12.634Z,101008.88
2018-04-12T00:14:38.368Z,101003.19
2018-04-12T00:17:04.113Z,101001.44
2018-04-12T00:19:29.842Z,101002.76
2018-04-12T00:21:55.572Z,100995.77
2018-04-12T00:24:21.296Z,101000.15
2018-04-12T00:26:47.040Z,100991.41
2018-04-12T00:29:12.769Z,100986.61
2018-04-12T00:31:38.517Z,100984.00
2018-04-12T00:34:04.236Z,100971.34
2018-04-12T00:36:29.974Z,100986.62
2018-04-12T00:38:55.705Z,100985.73
2018-04-12T00:41:21.428Z,100973.97
2018-04-12T00:43:47.162Z,100980.09
2018-04-12T00:46:12.909Z,100968.71
2018-04-12T00:48:38.649Z,100967.84
2018-04-12T00:51:04.383Z,100968.28
2018-04-12T00:53:42.593Z,100971.34
2018-04-12T00:56:08.337Z,100968.70
2018-04-12T00:58:34.061Z,100966.53
2018-04-12T01:00:59.791Z,100967.83
2018-04-12T01:03:25.523Z,100968.73
2018-04-12T01:05:51.253Z,100972.66
2018-04-12T01:08:16.983Z,100967.86
2018-04-12T01:10:42.728Z,100963.92
2018-04-12T01:13:08.445Z,100964.36
2018-04-12T01:15:34.175Z,100961.30
2018-04-12T01:17:59.912Z,100952.58
2018-04-12T01:20:25.660Z,100956.92
2018-04-12T01:22:51.401Z,100956.52
2018-04-12T01:25:17.129Z,100951.27
2018-04-12T01:27:42.859Z,100949.09
2018-04-12T01:30:08.592Z,100946.45
2018-04-12T01:32:34.336Z,100951.70
2018-04-12T01:35:00.073Z,100940.79
2018-04-12T01:37:25.806Z,100934.69
2018-04-12T01:39:51.534Z,100941.67
2018-04-12T01:42:17.267Z,100942.09
2018-04-12T01:44:42.997Z,100944.73
2018-04-12T01:47:08.732Z,100936.86
2018-04-12T01:49:34.468Z,100931.19
2018-04-12T01:52:00.213Z,100929.89
2018-04-12T01:54:25.958Z,100935.98
2018-04-12T01:56:51.696Z,100930.74
2018-04-12T01:59:17.428Z,100937.29
2018-04-12T02:01:43.169Z,100933.80
2018-04-12T02:04:08.899Z,100929.45
2018-04-12T02:06:34.636Z,100925.95
2018-04-12T02:09:00.375Z,100928.14
2018-04-12T02:11:26.117Z,100926.39
2018-04-12T02:13:51.868Z,100922.01
2018-04-12T02:16:17.612Z,100923.73
2018-04-12T02:18:43.360Z,100922.42
2018-04-12T02:21:09.078Z,100915.02
2018-04-12T02:23:34.820Z,100913.25
2018-04-12T02:26:00.545Z,100915.01
2018-04-12T02:28:26.285Z,100921.13
2018-04-12T02:30:52.008Z,100918.06
2018-04-12T02:33:17.741Z,100921.13
2018-04-12T02:35:43.464Z,100922.91
2018-04-12T02:38:09.212Z,100917.23
2018-04-12T02:40:34.941Z,100916.36
2018-04-12T02:43:00.679Z,100918.09
2018-04-12T02:45:26.416Z,100915.47
2018-04-12T02:47:52.157Z,100909.35
2018-04-12T02:50:17.892Z,100909.34
2018-04-12T02:52:43.628Z,100915.47
2018-04-12T02:55:09.358Z,100910.67
2018-04-12T02:57:35.093Z,100907.59
2018-04-12T03:00:00.845Z,100910.22
2018-04-12T03:02:26.586Z,100910.66
2018-04-12T03:04:52.315Z,100911.94
2018-04-12T03:07:18.036Z,100911.08
2018-04-12T03:09:43.778Z,100902.34
2018-04-12T03:12:09.514Z,100898.86
2018-04-12T03:14:35.252Z,100899.73
2018-04-12T03:17:00.979Z,100891.00
2018-04-12T03:19:26.712Z,100887.07
2018-04-12T03:21:52.430Z,100893.61
2018-04-12T03:24:18.175Z,100891.00
2018-04-12T03:26:43.907Z,100886.62
2018-04-12T03:29:09.647Z,100889.27
2018-04-12T03:31:35.381Z,100887.97
2018-04-12T03:34:01.124Z,100885.80
2018-04-12T03:36:26.849Z,100881.00
2018-04-12T03:38:52.580Z,100878.38
2018-04-12T03:41:18.321Z,100881.43
2018-04-12T03:43:44.059Z,100878.36
2018-04-12T03:46:09.818Z,100877.07
2018-04-12T03:48:35.581Z,100884.93
2018-04-12T03:51:01.300Z,100882.75
2018-04-12T03:53:27.043Z,100876.63
2018-04-12T03:55:52.768Z,100870.53
2018-04-12T03:58:18.499Z,100866.18
2018-04-12T04:00:44.252Z,100872.28
2018-04-12T04:03:09.989Z,100862.23
2018-04-12T04:05:35.728Z,100867.02
2018-04-12T04:08:01.465Z,100867.48
2018-04-12T04:10:27.204Z,100863.97
2018-04-12T04:12:52.935Z,100863.56
2018-04-12T04:15:31.146Z,100865.27
2018-04-12T04:18:09.361Z,100862.61
2018-04-12T04:20:47.706Z,100868.31
2018-04-12T04:23:13.419Z,100865.70
2018-04-12T04:25:39.152Z,100863.97
2018-04-12T04:28:04.884Z,100855.66
2018-04-12T04:30:30.635Z,100863.08
2018-04-12T04:32:56.364Z,100854.37
2018-04-12T04:35:22.116Z,100858.72
2018-04-12T04:37:47.901Z,100860.47
2018-04-12T04:40:13.635Z,100849.15
2018-04-12T04:42:39.369Z,100848.68
2018-04-12T04:45:05.129Z,100843.91
2018-04-12T04:47:30.868Z,100841.27
2018-04-12T04:49:56.600Z,100842.14
2018-04-12T04:52:22.329Z,100843.03
2018-04-12T04:54:48.055Z,100843.45
2018-04-12T04:57:13.785Z,100837.33
2018-04-12T04:59:39.507Z,100837.33
2018-04-12T05:02:05.252Z,100833.41
2018-04-12T05:04:30.985Z,100821.59
2018-04-12T05:06:56.696Z,100822.03
2018-04-12T05:09:22.432Z,100818.97
2018-04-12T05:11:48.152Z,100811.97
2018-04-12T05:14:13.884Z,100807.59
2018-04-12T05:16:39.596Z,100801.44
2018-04-12T05:19:05.321Z,100797.50
2018-04-12T05:21:31.055Z,100798.80
2018-04-12T05:23:56.777Z,100799.19
2018-04-12T05:26:22.525Z,100802.70
2018-04-12T05:28:48.256Z,100798.30
2018-04-12T05:31:13.983Z,100806.13
2018-04-12T05:33:39.708Z,100799.09
2018-04-12T05:36:05.440Z,100808.27
2018-04-12T05:38:31.159Z,100805.58
2018-04-12T05:40:56.889Z,100802.02
2018-04-12T05:43:22.605Z,100811.60
2018-04-12T05:45:48.356Z,100805.45
2018-04-12T05:48:14.091Z,100807.16
2018-04-12T05:50:39.828Z,100802.77
2018-04-12T05:53:05.556Z,100801.86
2018-04-12T05:55:31.293Z,100798.25
2018-04-12T05:57:57.028Z,100797.78
2018-04-12T06:00:22.765Z,100781.62
2018-04-12T06:02:48.492Z,100787.23
2018-04-12T06:05:14.243Z,100791.58
2018-04-12T06:07:39.961Z,100791.09
2018-04-12T06:10:05.701Z,100796.29
2018-04-12T06:12:31.432Z,100797.06
2018-04-12T06:14:57.165Z,100804.42
2018-04-12T06:17:22.889Z,100801.64
2018-04-12T06:19:48.620Z,100803.42
2018-04-12T06:22:14.356Z,100800.34
2018-04-12T06:24:40.094Z,100803.67
2018-04-12T06:27:05.830Z,100802.89
2018-04-12T06:29:31.548Z,100804.94
2018-04-12T06:31:57.288Z,100805.32
2018-04-12T06:34:22.997Z,100803.84
2018-04-12T06:36:48.735Z,100796.78
2018-04-12T06:39:14.455Z,100796.66
2018-04-12T06:41:40.184Z,100801.70
2018-04-12T06:44:05.917Z,100791.09
2018-04-12T06:46:31.655Z,100794.75
2018-04-12T06:48:57.380Z,100793.87
2018-04-12T06:51:23.106Z,100791.72
2018-04-12T06:53:48.832Z,100789.30
2018-04-12T06:56:14.569Z,100784.30
2018-04-12T06:58:40.293Z,100776.25
2018-04-12T07:01:06.037Z,100780.45
2018-04-12T07:03:31.754Z,100778.14
2018-04-12T07:05:57.497Z,100776.98
2018-04-12T07:10:53.551Z,100776.88
2018-04-12T07:13:19.267Z,100784.34
2018-04-12T07:15:45.000Z,100785.19
2018-04-12T07:18:10.731Z,100770.73
2018-04-12T07:20:36.466Z,100780.28
2018-04-12T07:23:02.197Z,100774.95
2018-04-12T07:25:27.929Z,100772.42
2018-04-12T07:27:53.659Z,100775.06
2018-04-12T07:30:19.380Z,100771.92
2018-04-12T07:32:45.100Z,100765.08
2018-04-12T07:35:10.812Z,100768.06
2018-04-12T07:37:36.547Z,100762.85
2018-04-12T07:40:02.285Z,100752.98
2018-04-12T07:42:28.012Z,100754.84
2018-04-12T07:44:53.734Z,100749.95
2018-04-12T07:47:19.469Z,100748.21
2018-04-12T07:49:45.206Z,100752.47
2018-04-12T07:52:10.960Z,100737.36
2018-04-12T07:54:36.699Z,100747.15
2018-04-12T07:57:02.432Z,100741.76
2018-04-12T07:59:28.157Z,100740.55
2018-04-12T08:01:53.901Z,100739.61
2018-04-12T08:04:19.624Z,100733.74
2018-04-12T08:06:45.365Z,100729.63
2018-04-12T08:09:11.089Z,100730.05
2018-04-12T08:11:36.813Z,100734.58
2018-04-12T08:14:02.538Z,100735.33
2018-04-12T08:16:28.282Z,100734.26
2018-04-12T08:18:54.013Z,100725.44
2018-04-12T08:21:19.742Z,100722.63
2018-04-12T08:23:45.460Z,100715.67
2018-04-12T08:26:11.186Z,100702.55
2018-04-12T08:28:36.904Z,100713.41
2018-04-12T08:31:02.641Z,100708.37
2018-04-12T08:33:28.361Z,100704.90
2018-04-12T08:35:54.118Z,100709.95
2018-04-12T08:38:19.835Z,100714.70
2018-04-12T08:40:45.565Z,100709.38
2018-04-12T08:43:11.293Z,100711.53
2018-04-12T08:45:37.044Z,100708.55
2018-04-12T08:48:02.794Z,100702.18
2018-04-12T08:50:28.526Z,100694.92
2018-04-12T08:52:54.272Z,100706.82
2018-04-12T08:55:19.993Z,100707.89
2018-04-12T08:57:45.736Z,100705.02
2018-04-12T09:00:11.465Z,100698.63
2018-04-12T09:02:37.206Z,100702.36
2018-04-12T09:05:02.938Z,100702.70
2018-04-12T09:07:28.677Z,100700.84
2018-04-12T09:09:54.420Z,100703.27
2018-04-12T09:12:20.153Z,100697.73
2018-04-12T09:14:45.869Z,100692.03
2018-04-12T09:17:11.613Z,100681.27
2018-04-12T09:19:37.350Z,100688.84
2018-04-12T09:22:03.101Z,100688.84
2018-04-12T09:24:28.837Z,100677.98
2018-04-12T09:26:54.587Z,100675.99
2018-04-12T09:29:20.335Z,100666.45
2018-04-12T09:31:46.080Z,100667.89
2018-04-12T09:34:11.829Z,100670.95
2018-04-12T09:36:37.571Z,100664.91
2018-04-12T09:39:05.173Z,100664.52
2018-04-12T09:41:30.932Z,100662.42
2018-04-12T09:46:29.178Z,100659.94
2018-04-12T09:48:54.912Z,100664.39
2018-04-12T09:51:20.626Z,100659.83
2018-04-12T09:53:46.383Z,100662.55
2018-04-12T09:56:12.100Z,100654.34
2018-04-12T09:58:37.842Z,100651.63
2018-04-12T10:01:09.777Z,100649.58
2018-04-12T10:03:35.536Z,100642.78
2018-04-12T10:06:04.253Z,100637.45
2018-04-12T10:08:30.001Z,100636.09
2018-04-12T10:10:55.724Z,100628.83
2018-04-12T10:13:21.455Z,100629.66
2018-04-12T10:15:47.181Z,100619.59
2018-04-12T10:18:12.910Z,100615.92
2018-04-12T10:20:38.625Z,100612.63
2018-04-12T10:23:04.352Z,100608.89
2018-04-12T10:25:30.089Z,100610.03
2018-04-12T10:27:55.816Z,100612.33
2018-04-12T10:30:21.537Z,100608.83
2018-04-12T10:32:47.326Z,100589.42
2018-04-12T10:35:13.001Z,100580.70
2018-04-12T10:37:38.728Z,100586.03
2018-04-12T10:40:04.448Z,100582.63
2018-04-12T10:42:30.187Z,100591.64
2018-04-12T10:44:55.920Z,100580.36
2018-04-12T10:47:21.667Z,100584.44
2018-04-12T10:49:47.391Z,100577.83
2018-04-12T10:52:13.114Z,100567.03
2018-04-12T10:54:38.856Z,100563.00
2018-04-12T10:57:04.575Z,100551.55
2018-04-12T10:59:30.341Z,100556.94
2018-04-12T11:01:56.064Z,100545.71
2018-04-12T11:04:21.808Z,100537.50
2018-04-12T11:06:47.544Z,100541.44
2018-04-12T11:09:13.267Z,100538.05
2018-04-12T11:11:38.991Z,100540.45
2018-04-12T11:14:04.728Z,100545.44
2018-04-12T11:16:30.435Z,100540.98
2018-04-12T11:18:56.161Z,100542.41
2018-04-12T11:21:21.909Z,100546.95
2018-04-12T11:23:47.652Z,100532.95
2018-04-12T11:26:13.364Z,100531.69
2018-04-12T11:28:39.095Z,100534.84
2018-04-12T11:31:04.824Z,100542.75
2018-04-12T11:33:30.551Z,100529.27
2018-04-12T11:35:56.281Z,100526.81
2018-04-12T11:38:22.009Z,100528.53
2018-04-12T11:40:47.732Z,100531.47
2018-04-12T11:43:13.461Z,100533.28
2018-04-12T11:45:39.196Z,100532.13
2018-04-12T11:48:04.917Z,100529.16
2018-04-12T11:50:30.640Z,100528.21
2018-04-12T11:52:56.356Z,100532.78
2018-04-12T11:55:22.093Z,100540.83
2018-04-12T11:57:47.812Z,100542.37
2018-04-12T12:00:13.536Z,100544.23
2018-04-12T12:02:39.265Z,100544.19
2018-04-12T12:05:05.016Z,100546.84
2018-04-12T12:07:30.747Z,100549.80
2018-04-12T12:09:56.472Z,100542.13
2018-04-12T12:12:22.260Z,100557.55
2018-04-12T12:14:47.949Z,100559.53
2018-04-12T12:17:13.692Z,100558.36
2018-04-12T12:19:39.424Z,100557.97
2018-04-12T12:22:05.162Z,100561.73
2018-04-12T12:24:30.919Z,100557.35
2018-04-12T12:26:56.661Z,100557.33
2018-04-12T12:29:22.404Z,100549.25
2018-04-12T12:31:48.121Z,100562.48
2018-04-12T12:34:13.861Z,100561.46
2018-04-12T12:36:39.579Z,100554.67
2018-04-12T12:39:05.328Z,100554.30
2018-04-12T12:41:31.039Z,100554.05
2018-04-12T12:43:56.780Z,100552.25
2018-04-12T12:46:22.513Z,100547.22
2018-04-12T12:48:48.248Z,100543.92
2018-04-12T12:51:13.986Z,100537.42
2018-04-12T12:53:39.705Z,100547.76
2018-04-12T12:56:05.475Z,100537.61
2018-04-12T12:58:31.177Z,100540.66
2018-04-12T13:00:56.917Z,100526.85
2018-04-12T13:03:22.640Z,100531.09
2018-04-12T13:05:48.400Z,100532.23
2018-04-12T13:08:14.125Z,100529.84
2018-04-12T13:10:39.860Z,100528.05
2018-04-12T13:13:05.581Z,100533.95
2018-04-12T13:15:31.325Z,100525.41
2018-04-12T13:17:57.059Z,100524.45
2018-04-12T13:20:22.796Z,100510.43
2018-04-12T13:22:48.512Z,100508.41
2018-04-12T13:25:14.244Z,100508.23
2018-04-12T13:27:39.987Z,100495.55
2018-04-12T13:30:05.782Z,100495.96
2018-04-12T13:32:31.523Z,100488.77
2018-04-12T13:34:57.256Z,100486.80
2018-04-12T13:37:23.004Z,100474.84
2018-04-12T13:39:48.746Z,100461.83
2018-04-12T13:42:14.477Z,100445.77
2018-04-12T13:44:40.253Z,100447.27
2018-04-12T13:47:06.002Z,100449.73
2018-04-12T13:49:31.746Z,100436.61
2018-04-12T13:51:57.482Z,100438.10
2018-04-12T13:54:23.225Z,100430.70
2018-04-12T13:56:48.972Z,100440.77
2018-04-12T13:59:14.712Z,100449.78
2018-04-12T14:01:40.459Z,100458.42
2018-04-12T14:04:06.195Z,100466.05
2018-04-12T14:06:31.949Z,100483.77
2018-04-12T14:08:57.684Z,100487.30
2018-04-12T14:11:23.424Z,100482.11
2018-04-12T14:13:49.152Z,100487.80
2018-04-12T14:16:14.908Z,100480.33
2018-04-12T14:18:40.636Z,100480.31
2018-04-12T14:21:06.388Z,100471.42
2018-04-12T14:23:32.117Z,100479.30
2018-04-12T14:25:57.881Z,100477.61
2018-04-12T14:28:23.890Z,100468.92
2018-04-12T14:30:49.680Z,100465.22
2018-04-12T14:33:15.474Z,100457.84
2018-04-12T14:35:41.300Z,100458.09
2018-04-12T14:38:07.033Z,100442.98
2018-04-12T14:40:32.771Z,100438.34
2018-04-12T14:42:58.512Z,100439.98
2018-04-12T14:45:24.252Z,100434.34
2018-04-12T14:47:49.995Z,100433.59
2018-04-12T14:50:15.749Z,100429.04
2018-04-12T14:52:41.484Z,100426.25
2018-04-12T14:55:07.233Z,100443.41
2018-04-12T14:57:32.972Z,100436.80
2018-04-12T14:59:59.340Z,100449.12
2018-04-12T15:02:25.092Z,100459.87
2018-04-12T15:04:50.824Z,100456.80
2018-04-12T15:07:16.577Z,100447.30
2018-04-12T15:09:42.308Z,100442.56
2018-04-12T15:12:08.052Z,100433.69
2018-04-12T15:14:33.799Z,100439.93
2018-04-12T15:16:59.550Z,100433.14
2018-04-12T15:19:25.290Z,100432.44
2018-04-12T15:21:51.034Z,100435.23
2018-04-12T15:24:16.760Z,100433.59
2018-04-12T15:26:42.494Z,100434.86
2018-04-12T15:29:08.248Z,100431.02
2018-04-12T15:31:33.993Z,100435.62
2018-04-12T15:33:59.737Z,100435.61
2018-04-12T15:36:25.468Z,100430.05
2018-04-12T15:38:51.197Z,100448.48
2018-04-12T15:41:16.940Z,100446.76
2018-04-12T15:43:42.664Z,100460.44
2018-04-12T15:46:08.408Z,100457.73
2018-04-12T15:48:34.141Z,100452.31
2018-04-12T15:50:59.893Z,100456.11
2018-04-12T15:53:25.616Z,100459.12
2018-04-12T15:55:51.353Z,100454.54
2018-04-12T15:58:17.092Z,100456.94
2018-04-12T16:00:42.833Z,100451.33
2018-04-12T16:03:08.564Z,100452.45
2018-04-12T16:05:34.315Z,100455.22
2018-04-12T16:08:00.093Z,100452.34
2018-04-12T16:10:25.824Z,100455.17
2018-04-12T16:12:51.563Z,100470.64
2018-04-12T16:15:17.294Z,100475.39
2018-04-12T16:17:43.041Z,100464.70
2018-04-12T16:20:08.774Z,100461.52
2018-04-12T16:22:34.508Z,100451.84
2018-04-12T16:25:00.253Z,100438.13
2018-04-12T16:27:25.996Z,100436.08
2018-04-12T16:29:51.876Z,100444.03
2018-04-12T16:32:17.616Z,100447.92
2018-04-12T16:34:43.344Z,100436.53
2018-04-12T16:37:09.124Z,100446.95
2018-04-12T16:39:34.861Z,100447.05
2018-04-12T16:42:00.596Z,100442.68
2018-04-12T16:44:26.824Z,100433.91
2018-04-12T16:46:52.572Z,100434.08
2018-04-12T16:49:18.300Z,100424.49
2018-04-12T16:51:44.039Z,100426.87
2018-04-12T16:54:09.768Z,100421.10
2018-04-12T16:56:35.518Z,100417.97
2018-04-12T16:59:01.241Z,100421.64
2018-04-12T17:01:26.982Z,100422.44
2018-04-12T17:03:52.709Z,100430.03
2018-04-12T17:06:18.459Z,100438.17
2018-04-12T17:08:44.508Z,100429.98
2018-04-12T17:11:10.256Z,100432.05
2018-04-12T17:13:35.976Z,100434.50
2018-04-12T17:16:01.709Z,100441.98
2018-04-12T17:18:27.439Z,100433.06
2018-04-12T17:20:53.188Z,100445.69
2018-04-12T17:23:18.913Z,100446.55
2018-04-12T17:25:44.636Z,100441.39
2018-04-12T17:28:10.366Z,100446.91
2018-04-12T17:30:43.939Z,100462.05
2018-04-12T17:33:09.667Z,100456.45
2018-04-12T17:35:35.414Z,100465.30
2018-04-12T17:38:01.152Z,100466.36
2018-04-12T17:40:26.869Z,100463.58
2018-04-12T17:42:52.609Z,100463.19
2018-04-12T17:45:18.345Z,100483.28
2018-04-12T17:47:44.099Z,100486.16
2018-04-12T17:50:09.817Z,100478.37
2018-04-12T17:52:35.557Z,100469.81
2018-04-12T17:55:01.289Z,100474.72
2018-04-12T17:57:27.035Z,100488.39
2018-04-12T17:59:52.759Z,100477.34
2018-04-12T18:02:18.518Z,100477.65
2018-04-12T18:04:44.239Z,100475.05
2018-04-12T18:07:09.996Z,100470.62
2018-04-12T18:09:35.777Z,100461.36
2018-04-12T18:12:01.513Z,100461.91
2018-04-12T18:14:27.239Z,100473.43
2018-04-12T18:16:52.963Z,100470.06
2018-04-12T18:19:18.684Z,100477.67
2018-04-12T18:21:44.400Z,100475.03
2018-04-12T18:24:10.140Z,100473.75
2018-04-12T18:26:35.897Z,100483.58
2018-04-12T18:29:01.645Z,100487.09
2018-04-12T18:31:27.361Z,100488.65
2018-04-12T18:33:53.092Z,100492.09
2018-04-12T18:36:18.942Z,100497.05
2018-04-12T18:38:44.696Z,100496.78
2018-04-12T18:41:10.681Z,100512.45
2018-04-12T18:43:36.427Z,100519.13
2018-04-12T18:46:02.176Z,100527.09
2018-04-12T18:48:28.031Z,100521.98
2018-04-12T18:50:53.823Z,100522.39
2018-04-12T18:53:19.847Z,100519.09
2018-04-12T18:55:45.577Z,100518.59
2018-04-12T18:58:11.316Z,100528.28
2018-04-12T19:00:37.065Z,100525.36
2018-04-12T19:03:02.810Z,100527.64
2018-04-12T19:05:28.552Z,100534.98
2018-04-12T19:07:54.301Z,100526.27
2018-04-12T19:10:20.232Z,100532.91
2018-04-12T19:12:45.972Z,100532.91
2018-04-12T19:15:11.725Z,100528.12
2018-04-12T19:17:37.545Z,100529.98
2018-04-12T19:20:03.299Z,100528.23
2018-04-12T19:22:29.211Z,100528.70
2018-04-12T19:24:55.226Z,100532.73
2018-04-12T19:27:21.080Z,100527.91
2018-04-12T19:29:47.052Z,100530.52
2018-04-12T19:32:12.800Z,100531.05
2018-04-12T19:34:38.659Z,100532.24
2018-04-12T19:37:04.428Z,100534.05
2018-04-12T19:39:30.173Z,100537.53
2018-04-12T19:41:55.923Z,100529.34
2018-04-12T19:44:21.671Z,100524.08
2018-04-12T19:46:47.412Z,100525.80
2018-04-12T19:49:13.161Z,100522.33
2018-04-12T19:51:39.072Z,100526.25
2018-04-12T19:54:04.822Z,100521.91
2018-04-12T19:56:30.561Z,100519.34
2018-04-12T19:58:56.305Z,100523.61
2018-04-12T20:01:22.089Z,100516.69
2018-04-12T20:03:47.840Z,100523.20
2018-04-12T20:06:13.579Z,100524.16
2018-04-12T20:08:39.474Z,100518.93
2018-04-12T20:11:05.504Z,100515.36
2018-04-12T20:13:31.272Z,100511.56
2018-04-12T20:15:57.018Z,100502.78
2018-04-12T20:18:22.836Z,100506.30
2018-04-12T20:20:48.556Z,100503.61
2018-04-12T20:23:14.310Z,100505.39
2018-04-12T20:25:40.069Z,100503.17
2018-04-12T20:28:05.840Z,100504.98
2018-04-12T20:30:31.639Z,100502.82
2018-04-12T20:32:57.537Z,100497.23
2018-04-12T20:35:23.287Z,100502.49
2018-04-12T20:37:49.023Z,100500.73
2018-04-12T20:40:14.797Z,100503.78
2018-04-12T20:42:40.541Z,100498.98
2018-04-12T20:45:06.293Z,100493.23
2018-04-12T20:47:32.126Z,100497.67
2018-04-12T20:49:57.925Z,100486.77
2018-04-12T20:52:23.662Z,100492.91
2018-04-12T20:54:49.473Z,100491.17
2018-04-12T20:57:15.140Z,100486.77
2018-04-12T20:59:40.891Z,100494.69
2018-04-12T21:02:06.647Z,100483.34
2018-04-12T21:04:32.396Z,100481.13
2018-04-12T21:06:58.125Z,100485.07
2018-04-12T21:09:23.864Z,100487.23
2018-04-12T21:11:49.589Z,100476.77
2018-04-12T21:14:15.337Z,100480.72
2018-04-12T21:16:41.068Z,100472.36
2018-04-12T21:19:06.807Z,100470.14
2018-04-12T21:21:32.540Z,100466.25
2018-04-12T21:23:58.276Z,100465.40
2018-04-12T21:26:24.002Z,100461.80
2018-04-12T21:28:49.768Z,100459.61
2018-04-12T21:31:15.500Z,100460.44
2018-04-12T21:33:41.242Z,100463.00
2018-04-12T21:36:06.979Z,100464.32
2018-04-12T21:38:32.724Z,100465.61
2018-04-12T21:40:58.456Z,100470.84
2018-04-12T21:43:24.208Z,100469.49
2018-04-12T21:45:49.964Z,100475.19
2018-04-12T21:48:15.688Z,100467.80
2018-04-12T21:50:41.412Z,100475.72
2018-04-12T21:53:07.128Z,100467.77
2018-04-12T21:55:32.857Z,100469.09
2018-04-12T21:57:58.591Z,100467.33
2018-04-12T22:00:24.337Z,100475.19
2018-04-12T22:02:50.050Z,100478.23
2018-04-12T22:05:15.769Z,100486.12
2018-04-12T22:07:41.484Z,100475.19
2018-04-12T22:10:07.208Z,100472.13
2018-04-12T22:12:32.937Z,100473.82
2018-04-12T22:14:58.664Z,100480.84
2018-04-12T22:17:24.380Z,100470.38
2018-04-12T22:19:50.105Z,100459.38
2018-04-12T22:22:15.832Z,100465.42
2018-04-12T22:24:41.565Z,100467.24
2018-04-12T22:27:07.305Z,100465.92
2018-04-12T22:29:33.030Z,100467.27
2018-04-12T22:31:58.757Z,100459.84
2018-04-12T22:34:24.500Z,100458.50
2018-04-12T22:36:50.237Z,100461.54
2018-04-12T22:39:15.981Z,100464.14
2018-04-12T22:41:41.798Z,100458.03
2018-04-12T22:44:07.553Z,100459.84
2018-04-12T22:46:33.288Z,100462.95
2018-04-12T22:48:59.008Z,100467.33
2018-04-12T22:51:24.741Z,100471.25
2018-04-12T22:53:50.476Z,100470.45
2018-04-12T22:56:16.211Z,100471.30
2018-04-12T22:58:41.924Z,100472.20
2018-04-12T23:01:07.656Z,100470.45
2018-04-12T23:03:33.380Z,100469.14
2018-04-12T23:05:59.144Z,100464.75
2018-04-12T23:08:24.861Z,100469.95
2018-04-12T23:10:50.597Z,100469.52
2018-04-12T23:13:16.337Z,100458.94
2018-04-12T23:15:42.061Z,100463.27
2018-04-12T23:18:07.780Z,100459.76
2018-04-12T23:20:33.512Z,100462.33
2018-04-12T23:22:59.240Z,100457.03
2018-04-12T23:25:24.970Z,100443.85
2018-04-12T23:27:50.704Z,100438.56
2018-04-12T23:30:16.442Z,100439.38
2018-04-12T23:32:42.187Z,100441.94
2018-04-12T23:35:07.928Z,100440.56
2018-04-12T23:37:33.644Z,100440.97
2018-04-12T23:39:59.464Z,100440.87
2018-04-12T23:42:25.196Z,100441.25
2018-04-12T23:44:50.940Z,100429.84
2018-04-12T23:47:16.790Z,100432.38
2018-04-12T23:49:42.533Z,100437.55
2018-04-12T23:52:08.262Z,100433.91
2018-04-12T23:54:34.004Z,100430.33
2018-04-12T23:56:59.736Z,100432.42
2018-04-12T23:59:25.469Z,100426.22
